createdAt,value
2023-03-26T00:01:15.620Z,69.40
2023-03-26T00:03:44.796Z,69.60
2023-03-26T00:06:14.116Z,69.57
2023-03-26T00:08:42.631Z,69.66
2023-03-26T00:11:11.021Z,69.51
2023-03-26T00:13:38.020Z,67.98
2023-03-26T00:16:04.903Z,68.18
2023-03-26T00:18:31.590Z,68.80
2023-03-26T00:20:59.409Z,68.99
2023-03-26T00:23:27.347Z,68.41
2023-03-26T00:25:54.673Z,69.12
2023-03-26T00:28:22.581Z,68.91
2023-03-26T00:30:49.940Z,68.03
2023-03-26T00:33:17.514Z,68.22
2023-03-26T00:35:47.002Z,67.72
2023-03-26T00:38:14.740Z,67.68
2023-03-26T00:40:44.222Z,67.65
2023-03-26T00:43:18.880Z,68.53
2023-03-26T00:45:49.266Z,68.07
2023-03-26T00:48:16.790Z,68.36
2023-03-26T00:50:46.273Z,68.58
2023-03-26T00:53:14.123Z,67.99
2023-03-26T00:55:41.593Z,68.54
2023-03-26T00:58:11.707Z,69.09
2023-03-26T01:00:57.405Z,69.92
2023-03-26T01:03:27.663Z,69.82
2023-03-26T01:06:02.650Z,70.02
2023-03-26T01:08:49.826Z,70.43
2023-03-26T01:11:29.723Z,70.91
2023-03-26T01:14:00.228Z,70.70
2023-03-26T01:16:29.612Z,70.71
2023-03-26T01:18:58.764Z,71.17
2023-03-26T01:21:29.959Z,71.11
2023-03-26T01:24:05.252Z,71.65
2023-03-26T01:27:01.648Z,71.75
2023-03-26T01:29:43.330Z,71.78
2023-03-26T01:32:30.994Z,72.19
2023-03-26T01:35:13.072Z,72.32
2023-03-26T01:37:58.944Z,71.55
2023-03-26T01:40:38.461Z,71.97
2023-03-26T01:43:20.839Z,71.49
2023-03-26T01:45:49.155Z,72.65
2023-03-26T01:48:15.839Z,71.53
2023-03-26T01:50:42.415Z,71.52
2023-03-26T01:53:11.393Z,71.96
2023-03-26T01:56:16.409Z,72.04
2023-03-26T01:59:02.962Z,72.14
2023-03-26T02:01:44.770Z,71.29
2023-03-26T02:04:20.471Z,71.86
2023-03-26T02:06:52.951Z,71.95
2023-03-26T02:09:24.724Z,72.10
2023-03-26T02:11:51.528Z,71.82
2023-03-26T02:14:18.099Z,71.99
2023-03-26T02:16:46.957Z,72.07
2023-03-26T02:19:21.565Z,71.62
2023-03-26T02:21:51.706Z,71.52
2023-03-26T02:24:21.271Z,72.14
2023-03-26T02:26:47.670Z,71.71
2023-03-26T02:29:19.393Z,71.72
2023-03-26T02:31:48.269Z,71.81
2023-03-26T02:34:16.580Z,72.03
2023-03-26T02:36:43.225Z,72.19
2023-03-26T02:39:10.941Z,72.09
2023-03-26T02:41:40.892Z,72.34
2023-03-26T02:44:07.255Z,72.45
2023-03-26T02:46:34.059Z,72.59
2023-03-26T02:49:00.538Z,72.40
2023-03-26T02:51:27.294Z,72.32
2023-03-26T02:53:53.756Z,72.17
2023-03-26T02:56:20.486Z,72.34
2023-03-26T02:58:46.961Z,72.42
2023-03-26T03:01:13.702Z,72.08
2023-03-26T03:03:40.571Z,72.36
2023-03-26T03:06:07.075Z,72.26
2023-03-26T03:08:33.999Z,72.50
2023-03-26T03:11:08.886Z,71.95
2023-03-26T03:13:35.450Z,71.99
2023-03-26T03:16:01.880Z,72.63
2023-03-26T03:18:28.420Z,72.13
2023-03-26T03:20:54.923Z,71.68
2023-03-26T03:23:21.413Z,71.90
2023-03-26T03:25:49.005Z,72.08
2023-03-26T03:28:18.142Z,71.94
2023-03-26T03:30:45.026Z,71.94
2023-03-26T03:33:13.046Z,72.09
2023-03-26T03:35:40.161Z,71.95
2023-03-26T03:38:06.635Z,71.76
2023-03-26T03:40:33.122Z,72.08
2023-03-26T03:42:59.540Z,71.98
2023-03-26T03:45:26.094Z,71.96
2023-03-26T03:47:53.212Z,72.00
2023-03-26T03:50:19.853Z,71.92
2023-03-26T03:52:46.508Z,71.83
2023-03-26T03:55:14.006Z,71.16
2023-03-26T03:57:40.591Z,71.79
2023-03-26T04:00:09.016Z,71.72
2023-03-26T04:02:36.003Z,71.68
2023-03-26T04:05:04.058Z,71.71
2023-03-26T04:07:31.243Z,72.02
2023-03-26T04:10:03.021Z,72.03
2023-03-26T04:12:30.941Z,72.23
2023-03-26T04:14:58.242Z,72.17
2023-03-26T04:17:25.554Z,72.27
2023-03-26T04:19:55.330Z,72.33
2023-03-26T04:22:22.629Z,72.48
2023-03-26T04:24:50.136Z,72.18
2023-03-26T04:27:25.491Z,72.24
2023-03-26T04:29:52.261Z,72.29
2023-03-26T04:32:26.472Z,71.77
2023-03-26T04:34:53.446Z,71.96
2023-03-26T04:37:26.542Z,72.03
2023-03-26T04:39:54.408Z,71.86
2023-03-26T04:42:21.081Z,71.26
2023-03-26T04:44:50.764Z,71.10
2023-03-26T04:47:18.296Z,71.34
2023-03-26T04:49:47.271Z,71.35
2023-03-26T04:52:14.900Z,71.54
2023-03-26T04:54:43.545Z,71.18
2023-03-26T04:57:19.336Z,71.47
2023-03-26T04:59:45.898Z,71.64
2023-03-26T05:02:13.017Z,71.89
2023-03-26T05:04:40.125Z,71.40
2023-03-26T05:07:07.328Z,71.46
2023-03-26T05:09:33.740Z,70.81
2023-03-26T05:12:00.257Z,71.24
2023-03-26T05:14:26.796Z,71.41
2023-03-26T05:16:53.448Z,71.39
2023-03-26T05:19:19.991Z,70.62
2023-03-26T05:21:46.390Z,71.44
2023-03-26T05:24:12.745Z,71.16
2023-03-26T05:26:39.175Z,71.31
2023-03-26T05:29:05.702Z,71.73
2023-03-26T05:31:32.115Z,71.65
2023-03-26T05:34:00.590Z,72.06
2023-03-26T05:36:28.388Z,71.96
2023-03-26T05:38:55.008Z,71.40
2023-03-26T05:41:21.658Z,71.27
2023-03-26T05:43:48.983Z,71.50
2023-03-26T05:46:15.636Z,71.79
2023-03-26T05:48:42.126Z,71.97
2023-03-26T05:51:08.717Z,71.90
2023-03-26T05:53:35.154Z,72.07
2023-03-26T05:56:02.053Z,71.85
2023-03-26T05:58:30.392Z,72.09
2023-03-26T06:01:05.792Z,71.73
2023-03-26T06:03:33.501Z,71.56
2023-03-26T06:06:00.006Z,71.73
2023-03-26T06:08:26.724Z,71.69
2023-03-26T06:10:59.242Z,71.38
2023-03-26T06:13:25.766Z,71.13
2023-03-26T06:15:52.693Z,70.64
2023-03-26T06:18:20.545Z,69.86
2023-03-26T06:20:47.176Z,68.32
2023-03-26T06:23:13.592Z,67.14
2023-03-26T06:25:41.315Z,64.93
2023-03-26T06:28:07.687Z,65.50
2023-03-26T06:30:34.140Z,65.44
2023-03-26T06:33:00.834Z,66.36
2023-03-26T06:35:29.738Z,65.98
2023-03-26T06:37:56.604Z,66.27
2023-03-26T06:40:23.327Z,66.56
2023-03-26T06:43:09.054Z,67.11
2023-03-26T06:45:36.579Z,68.42
2023-03-26T06:48:03.467Z,69.14
2023-03-26T06:50:32.052Z,69.50
2023-03-26T06:52:58.926Z,68.04
2023-03-26T06:55:25.470Z,68.57
2023-03-26T06:57:53.633Z,68.79
2023-03-26T07:00:20.796Z,68.51
2023-03-26T07:02:47.566Z,69.16
2023-03-26T07:05:14.717Z,69.00
2023-03-26T07:07:45.927Z,66.90
2023-03-26T07:10:13.718Z,68.18
2023-03-26T07:12:41.508Z,68.05
2023-03-26T07:15:08.394Z,68.68
2023-03-26T07:17:34.834Z,68.87
2023-03-26T07:20:01.438Z,68.31
2023-03-26T07:22:28.203Z,68.94
2023-03-26T07:24:55.192Z,69.13
2023-03-26T07:27:36.633Z,69.08
2023-03-26T07:30:08.454Z,68.44
2023-03-26T07:32:47.457Z,68.51
2023-03-26T07:35:22.458Z,68.38
2023-03-26T07:37:55.537Z,68.98
2023-03-26T07:40:51.273Z,69.16
2023-03-26T07:43:38.892Z,69.64
2023-03-26T07:46:05.776Z,69.01
2023-03-26T07:48:40.765Z,69.82
2023-03-26T07:51:07.975Z,70.12
2023-03-26T07:53:34.631Z,70.65
2023-03-26T07:56:19.133Z,70.76
2023-03-26T07:58:59.289Z,70.00
2023-03-26T08:01:57.957Z,70.51
2023-03-26T08:04:42.499Z,70.52
2023-03-26T08:07:25.684Z,70.96
2023-03-26T08:10:02.666Z,70.70
2023-03-26T08:12:54.229Z,70.74
2023-03-26T08:15:49.715Z,71.13
2023-03-26T08:18:31.166Z,71.96
2023-03-26T08:21:04.239Z,72.62
2023-03-26T08:23:58.951Z,71.83
2023-03-26T08:26:29.412Z,72.08
2023-03-26T08:29:09.426Z,72.55
2023-03-26T08:31:39.360Z,72.36
2023-03-26T08:34:09.754Z,72.12
2023-03-26T08:36:36.917Z,72.36
2023-03-26T08:39:04.083Z,72.66
2023-03-26T08:42:07.852Z,73.42
2023-03-26T08:45:01.064Z,72.81
2023-03-26T08:47:46.371Z,73.01
2023-03-26T08:50:31.788Z,73.49
2023-03-26T08:53:35.874Z,73.00
2023-03-26T08:56:26.151Z,73.49
2023-03-26T08:59:29.320Z,73.39
2023-03-26T09:02:26.877Z,72.83
2023-03-26T09:05:21.398Z,73.30
2023-03-26T09:07:59.597Z,73.35
2023-03-26T09:11:07.047Z,73.52
2023-03-26T09:13:56.140Z,73.65
2023-03-26T09:16:37.703Z,72.28
2023-03-26T09:19:26.121Z,72.42
2023-03-26T09:22:17.587Z,72.42
2023-03-26T09:25:28.422Z,72.82
2023-03-26T09:28:30.331Z,71.91
2023-03-26T09:31:31.911Z,72.09
2023-03-26T09:34:43.830Z,71.48
2023-03-26T09:37:56.494Z,70.99
2023-03-26T09:40:36.654Z,70.57
2023-03-26T09:43:24.376Z,69.17
2023-03-26T09:45:57.249Z,67.83
2023-03-26T09:48:29.907Z,68.81
2023-03-26T09:51:20.755Z,67.98
2023-03-26T09:54:12.321Z,68.28
2023-03-26T09:57:04.359Z,66.82
2023-03-26T09:59:55.624Z,66.96
2023-03-26T10:02:47.739Z,67.54
2023-03-26T10:05:34.133Z,70.05
2023-03-26T10:08:14.389Z,68.59
2023-03-26T10:11:13.175Z,70.19
2023-03-26T10:14:18.193Z,68.95
2023-03-26T10:16:50.663Z,67.04
2023-03-26T10:19:55.047Z,69.23
2023-03-26T10:22:34.420Z,66.90
2023-03-26T10:25:22.753Z,67.10
2023-03-26T10:28:21.352Z,65.04
2023-03-26T10:31:07.804Z,64.10
2023-03-26T10:34:28.956Z,62.78
2023-03-26T10:37:24.698Z,63.02
2023-03-26T10:40:27.128Z,59.88
2023-03-26T10:43:12.469Z,60.87
2023-03-26T10:45:51.991Z,59.08
2023-03-26T10:48:24.599Z,58.52
2023-03-26T10:51:13.034Z,54.51
2023-03-26T10:53:47.696Z,61.15
2023-03-26T10:56:22.857Z,59.64
2023-03-26T10:58:50.144Z,62.14
2023-03-26T11:01:24.006Z,62.75
2023-03-26T11:03:55.835Z,61.37
2023-03-26T11:06:39.843Z,59.37
2023-03-26T11:09:23.709Z,59.26
2023-03-26T11:12:02.082Z,58.75
2023-03-26T11:15:16.111Z,57.74
2023-03-26T11:17:58.961Z,54.59
2023-03-26T11:20:41.625Z,54.34
2023-03-26T11:23:37.264Z,53.38
2023-03-26T11:26:09.437Z,53.60
2023-03-26T11:32:02.034Z,54.97
2023-03-26T11:34:36.994Z,53.17
2023-03-26T11:34:37.101Z,51.68
2023-03-26T11:37:08.619Z,52.46
2023-03-26T11:39:49.740Z,51.93
2023-03-26T11:42:19.242Z,51.30
2023-03-26T11:44:54.994Z,51.04
2023-03-26T11:47:29.541Z,52.04
2023-03-26T11:50:00.172Z,49.55
2023-03-26T11:52:27.651Z,48.70
2023-03-26T11:54:54.272Z,49.55
2023-03-26T11:57:29.140Z,50.16
2023-03-26T12:00:06.569Z,51.14
2023-03-26T12:02:41.419Z,49.15
2023-03-26T12:05:12.375Z,47.15
2023-03-26T12:08:03.672Z,48.05
2023-03-26T12:10:37.892Z,47.97
2023-03-26T12:13:23.832Z,44.99
2023-03-26T12:15:50.315Z,43.45
2023-03-26T12:18:34.747Z,44.31
2023-03-26T12:21:11.047Z,44.83
2023-03-26T12:23:43.706Z,43.47
2023-03-26T12:26:20.676Z,42.23
2023-03-26T12:28:49.730Z,43.52
2023-03-26T12:31:20.649Z,43.63
2023-03-26T12:34:07.771Z,40.57
2023-03-26T12:36:35.786Z,41.93
2023-03-26T12:40:09.671Z,40.84
2023-03-26T12:44:51.243Z,41.55
2023-03-26T12:45:14.025Z,40.96
2023-03-26T12:47:57.075Z,40.43
2023-03-26T12:50:57.066Z,41.25
2023-03-26T12:53:50.812Z,39.90
2023-03-26T12:56:27.159Z,39.06
2023-03-26T12:59:09.159Z,38.15
2023-03-26T13:02:29.482Z,37.45
2023-03-26T13:05:28.919Z,36.81
2023-03-26T13:07:58.280Z,37.09
2023-03-26T13:10:43.126Z,38.37
2023-03-26T13:13:48.419Z,38.48
2023-03-26T13:16:43.914Z,36.96
2023-03-26T13:19:50.640Z,36.55
2023-03-26T13:22:38.855Z,38.36
2023-03-26T13:25:24.195Z,40.25
2023-03-26T13:28:21.251Z,39.81
2023-03-26T13:30:56.862Z,41.88
2023-03-26T13:33:38.469Z,43.68
2023-03-26T13:36:24.179Z,40.72
2023-03-26T13:39:18.266Z,40.67
2023-03-26T13:42:01.876Z,42.06
2023-03-26T13:44:46.296Z,43.52
2023-03-26T13:47:23.540Z,42.68
2023-03-26T13:49:58.684Z,43.31
2023-03-26T13:52:27.520Z,44.67
2023-03-26T13:55:20.011Z,47.13
2023-03-26T13:58:05.007Z,45.79
2023-03-26T14:00:58.070Z,42.88
2023-03-26T14:03:36.232Z,41.25
2023-03-26T14:06:10.772Z,40.80
2023-03-26T14:08:49.130Z,41.24
2023-03-26T14:11:34.788Z,41.45
2023-03-26T14:14:11.294Z,42.17
2023-03-26T14:16:48.241Z,42.71
2023-03-26T14:19:38.786Z,41.91
2023-03-26T14:22:37.004Z,40.78
2023-03-26T14:25:25.074Z,40.66
2023-03-26T14:28:06.033Z,40.74
2023-03-26T14:30:50.955Z,40.26
2023-03-26T14:33:34.167Z,45.44
2023-03-26T14:36:28.286Z,46.93
2023-03-26T14:39:18.744Z,47.94
2023-03-26T14:41:51.188Z,46.55
2023-03-26T14:44:51.879Z,49.85
2023-03-26T14:47:21.031Z,49.27
2023-03-26T14:50:06.544Z,48.43
2023-03-26T14:52:50.363Z,48.37
2023-03-26T14:55:40.169Z,47.47
2023-03-26T14:58:44.244Z,47.77
2023-03-26T15:01:23.884Z,49.00
2023-03-26T15:04:02.445Z,49.60
2023-03-26T15:06:50.671Z,52.86
2023-03-26T15:09:49.410Z,54.12
2023-03-26T15:12:35.809Z,54.11
2023-03-26T15:15:20.475Z,54.35
2023-03-26T15:18:18.677Z,55.25
2023-03-26T15:21:22.168Z,55.83
2023-03-26T15:24:09.627Z,58.58
2023-03-26T15:27:13.627Z,65.28
2023-03-26T15:30:17.245Z,71.79
2023-03-26T15:33:17.988Z,74.54
2023-03-26T15:35:59.748Z,76.49
2023-03-26T15:38:48.333Z,77.24
2023-03-26T15:41:28.765Z,76.93
2023-03-26T15:46:46.326Z,75.76
2023-03-26T15:49:39.743Z,74.53
2023-03-26T15:52:27.871Z,73.15
2023-03-26T15:55:05.212Z,73.10
2023-03-26T15:57:43.881Z,70.47
2023-03-26T16:00:25.073Z,70.67
2023-03-26T16:03:13.027Z,70.27
2023-03-26T16:06:18.774Z,69.38
2023-03-26T16:09:07.854Z,69.97
2023-03-26T16:11:57.836Z,70.56
2023-03-26T16:14:36.497Z,71.01
2023-03-26T16:17:06.597Z,71.21
2023-03-26T16:19:50.448Z,71.67
2023-03-26T16:22:53.601Z,69.94
2023-03-26T16:25:33.447Z,70.20
2023-03-26T16:28:28.593Z,70.57
2023-03-26T16:31:23.569Z,69.61
2023-03-26T16:34:05.206Z,71.29
2023-03-26T16:36:35.965Z,69.07
2023-03-26T16:39:05.517Z,68.10
2023-03-26T16:41:51.280Z,67.91
2023-03-26T16:44:45.276Z,68.76
2023-03-26T16:47:27.245Z,68.19
2023-03-26T16:50:29.185Z,68.04
2023-03-26T16:53:24.087Z,67.29
2023-03-26T16:55:56.648Z,67.54
2023-03-26T16:58:30.901Z,67.30
2023-03-26T17:01:08.652Z,67.45
2023-03-26T17:03:44.839Z,67.90
2023-03-26T17:06:36.495Z,68.55
2023-03-26T17:09:51.595Z,68.04
2023-03-26T17:12:35.244Z,67.06
2023-03-26T17:15:41.146Z,66.89
2023-03-26T17:18:39.683Z,67.74
2023-03-26T17:21:16.028Z,67.28
2023-03-26T17:24:16.155Z,67.04
2023-03-26T17:27:06.750Z,66.78
2023-03-26T17:30:00.510Z,66.70
2023-03-26T17:32:54.218Z,66.24
2023-03-26T17:35:39.431Z,67.07
2023-03-26T17:38:18.238Z,67.19
2023-03-26T17:40:59.389Z,67.19
2023-03-26T17:43:42.373Z,66.91
2023-03-26T17:46:29.396Z,66.74
2023-03-26T17:49:18.028Z,66.58
2023-03-26T17:51:44.400Z,66.58
2023-03-26T17:54:19.767Z,68.40
2023-03-26T17:56:47.587Z,68.30
2023-03-26T17:59:23.161Z,67.11
2023-03-26T18:01:55.269Z,68.32
2023-03-26T18:04:31.105Z,68.20
2023-03-26T18:07:18.401Z,68.20
2023-03-26T18:10:09.425Z,67.98
2023-03-26T18:12:51.236Z,69.01
2023-03-26T18:15:36.533Z,69.76
2023-03-26T18:18:20.625Z,70.07
2023-03-26T18:20:49.361Z,69.34
2023-03-26T18:23:38.745Z,68.84
2023-03-26T18:26:15.448Z,68.88
2023-03-26T18:28:54.366Z,68.79
2023-03-26T18:31:24.955Z,69.01
2023-03-26T18:33:58.926Z,69.25
2023-03-26T18:36:27.882Z,69.11
2023-03-26T18:39:03.132Z,68.98
2023-03-26T18:41:37.234Z,69.39
2023-03-26T18:44:06.988Z,69.17
2023-03-26T18:46:34.148Z,68.76
2023-03-26T18:49:02.994Z,68.73
2023-03-26T18:51:31.853Z,68.33
2023-03-26T18:54:00.724Z,67.86
2023-03-26T18:56:31.624Z,68.00
2023-03-26T18:59:00.329Z,68.22
2023-03-26T19:01:33.075Z,67.53
2023-03-26T19:04:04.214Z,67.65
2023-03-26T19:06:36.071Z,67.77
2023-03-26T19:09:19.644Z,67.70
2023-03-26T19:11:57.327Z,67.73
2023-03-26T19:14:26.090Z,67.82
2023-03-26T19:16:57.904Z,67.27
2023-03-26T19:19:37.815Z,67.43
2023-03-26T19:22:07.061Z,66.93
2023-03-26T19:24:34.297Z,67.62
2023-03-26T19:27:01.042Z,67.20
2023-03-26T19:29:32.108Z,67.18
2023-03-26T19:32:29.348Z,66.70
2023-03-26T19:34:59.623Z,66.63
2023-03-26T19:37:29.988Z,67.07
2023-03-26T19:40:14.360Z,66.71
2023-03-26T19:42:44.805Z,67.17
2023-03-26T19:45:20.745Z,67.47
2023-03-26T19:48:00.080Z,67.64
2023-03-26T19:50:36.781Z,67.98
2023-03-26T19:53:16.024Z,68.59
2023-03-26T19:55:53.213Z,69.50
2023-03-26T19:58:19.782Z,69.29
2023-03-26T20:00:46.283Z,68.92
2023-03-26T20:03:13.300Z,68.46
2023-03-26T20:05:39.830Z,68.87
2023-03-26T20:08:14.201Z,68.21
2023-03-26T20:10:41.502Z,67.90
2023-03-26T20:13:17.770Z,68.11
2023-03-26T20:16:05.383Z,68.64
2023-03-26T20:18:33.175Z,68.34
2023-03-26T20:20:59.840Z,68.34
2023-03-26T20:23:28.826Z,68.11
2023-03-26T20:25:55.822Z,68.43
2023-03-26T20:28:24.441Z,68.41
2023-03-26T20:30:54.424Z,68.59
2023-03-26T20:33:25.627Z,68.83
2023-03-26T20:35:53.677Z,68.96
2023-03-26T20:38:24.026Z,69.15
2023-03-26T20:40:56.177Z,68.92
2023-03-26T20:43:25.024Z,69.36
2023-03-26T20:45:51.967Z,68.92
2023-03-26T20:48:18.452Z,68.80
2023-03-26T20:50:50.818Z,68.91
2023-03-26T20:53:19.343Z,68.79
2023-03-26T20:55:46.737Z,69.32
2023-03-26T20:58:15.023Z,68.97
2023-03-26T21:00:44.522Z,69.46
2023-03-26T21:03:15.761Z,69.63
2023-03-26T21:05:43.187Z,68.93
2023-03-26T21:08:17.142Z,69.03
2023-03-26T21:10:45.542Z,69.40
2023-03-26T21:13:30.775Z,68.53
2023-03-26T21:15:58.493Z,68.55
2023-03-26T21:18:26.081Z,68.03
2023-03-26T21:21:14.109Z,68.07
2023-03-26T21:23:59.154Z,68.33
2023-03-26T21:26:35.042Z,68.04
2023-03-26T21:29:08.636Z,67.54
2023-03-26T21:31:37.646Z,67.46
2023-03-26T21:34:05.522Z,67.14
2023-03-26T21:36:32.326Z,66.86
2023-03-26T21:38:59.550Z,66.30
2023-03-26T21:41:45.440Z,67.05
2023-03-26T21:44:14.125Z,67.00
2023-03-26T21:46:45.463Z,66.23
2023-03-26T21:49:13.981Z,66.84
2023-03-26T21:51:40.904Z,66.63
2023-03-26T21:54:28.926Z,66.30
2023-03-26T21:57:13.761Z,66.75
2023-03-26T21:59:40.405Z,66.33
2023-03-26T22:02:22.716Z,66.80
2023-03-26T22:04:54.481Z,67.43
2023-03-26T22:07:30.557Z,67.74
2023-03-26T22:09:57.259Z,69.12
2023-03-26T22:12:28.393Z,69.26
2023-03-26T22:14:54.798Z,70.20
2023-03-26T22:17:22.646Z,69.22
2023-03-26T22:19:49.088Z,69.69
2023-03-26T22:22:15.588Z,69.79
2023-03-26T22:24:42.225Z,70.04
2023-03-26T22:27:08.775Z,69.81
2023-03-26T22:29:35.216Z,69.98
2023-03-26T22:32:03.576Z,69.91
2023-03-26T22:34:30.609Z,70.85
2023-03-26T22:36:57.286Z,70.66
2023-03-26T22:39:23.965Z,70.27
2023-03-26T22:41:50.432Z,71.31
2023-03-26T22:44:20.331Z,72.15
2023-03-26T22:46:51.045Z,71.80
2023-03-26T22:49:17.823Z,72.75
2023-03-26T22:51:44.335Z,72.57
2023-03-26T22:54:11.107Z,73.28
2023-03-26T22:56:37.952Z,73.53
2023-03-26T22:59:04.598Z,73.87
2023-03-26T23:01:31.268Z,73.67
2023-03-26T23:03:57.894Z,73.76
2023-03-26T23:06:25.093Z,73.50
2023-03-26T23:08:51.509Z,73.64
2023-03-26T23:11:19.756Z,73.51
2023-03-26T23:13:47.529Z,73.45
2023-03-26T23:16:14.785Z,73.90
2023-03-26T23:18:41.529Z,74.46
2023-03-26T23:21:16.988Z,75.63
2023-03-26T23:23:43.470Z,75.08
2023-03-26T23:26:10.739Z,74.61
2023-03-26T23:28:38.217Z,75.62
2023-03-26T23:31:06.928Z,74.96
2023-03-26T23:33:36.586Z,73.66
2023-03-26T23:36:10.724Z,73.13
2023-03-26T23:38:43.817Z,73.41
2023-03-26T23:41:14.812Z,73.08
2023-03-26T23:43:53.513Z,73.73
2023-03-26T23:46:23.763Z,73.68
2023-03-26T23:48:52.387Z,73.18
2023-03-26T23:51:22.268Z,73.29
2023-03-26T23:53:49.517Z,73.10
2023-03-26T23:56:16.280Z,72.78
2023-03-26T23:58:42.993Z,72.46
